createdAt,value
2023-05-22T00:02:25.915Z,57.21
2023-05-22T00:05:27.750Z,57.14
2023-05-22T00:08:29.943Z,57.19
2023-05-22T00:11:34.167Z,57.38
2023-05-22T00:14:35.940Z,57.49
2023-05-22T00:17:38.157Z,57.35
2023-05-22T00:20:40.330Z,57.39
2023-05-22T00:23:42.305Z,57.40
2023-05-22T00:26:44.062Z,57.38
2023-05-22T00:29:46.018Z,57.27
2023-05-22T00:32:47.760Z,57.43
2023-05-22T00:35:50.806Z,57.30
2023-05-22T00:38:52.761Z,57.20
2023-05-22T00:41:54.764Z,57.04
2023-05-22T00:44:56.503Z,56.95
2023-05-22T00:47:58.355Z,57.15
2023-05-22T00:51:00.816Z,57.37
2023-05-22T00:54:04.347Z,57.61
2023-05-22T00:57:06.337Z,57.64
2023-05-22T01:00:12.580Z,57.71
2023-05-22T01:03:15.316Z,57.63
2023-05-22T01:06:18.093Z,57.45
2023-05-22T01:09:19.959Z,57.23
2023-05-22T01:12:34.771Z,57.24
2023-05-22T01:16:00.921Z,57.17
2023-05-22T01:19:08.631Z,57.22
2023-05-22T01:22:33.406Z,57.30
2023-05-22T01:25:35.127Z,57.24
2023-05-22T01:28:39.678Z,57.21
2023-05-22T01:31:45.145Z,57.18
2023-05-22T01:34:51.549Z,57.15
2023-05-22T01:37:54.316Z,57.20
2023-05-22T01:40:56.217Z,57.51
2023-05-22T01:43:59.646Z,57.47
2023-05-22T01:47:04.601Z,57.40
2023-05-22T01:50:07.591Z,57.40
2023-05-22T01:53:13.369Z,57.32
2023-05-22T01:56:30.054Z,57.58
2023-05-22T01:59:42.964Z,57.71
2023-05-22T02:02:50.528Z,57.65
2023-05-22T02:05:55.206Z,57.51
2023-05-22T02:08:58.424Z,57.29
2023-05-22T02:12:00.502Z,57.14
2023-05-22T02:15:05.513Z,57.34
2023-05-22T02:18:13.657Z,57.35
2023-05-22T02:21:15.421Z,57.39
2023-05-22T02:24:17.208Z,57.50
2023-05-22T02:27:19.226Z,57.19
2023-05-22T02:30:20.940Z,57.29
2023-05-22T02:33:24.744Z,57.22
2023-05-22T02:36:28.240Z,57.20
2023-05-22T02:39:30.521Z,57.31
2023-05-22T02:42:33.005Z,57.61
2023-05-22T02:45:34.807Z,57.80
2023-05-22T02:48:36.579Z,57.76
2023-05-22T02:51:38.368Z,58.02
2023-05-22T02:54:40.457Z,57.98
2023-05-22T02:57:42.511Z,57.75
2023-05-22T03:00:44.683Z,57.49
2023-05-22T03:03:47.716Z,57.47
2023-05-22T03:06:49.999Z,57.77
2023-05-22T03:09:52.096Z,57.86
2023-05-22T03:12:53.907Z,57.86
2023-05-22T03:15:55.949Z,57.93
2023-05-22T03:19:16.830Z,57.97
2023-05-22T03:22:18.887Z,58.12
2023-05-22T03:25:21.364Z,57.93
2023-05-22T03:28:23.159Z,58.12
2023-05-22T03:31:27.709Z,58.19
2023-05-22T03:34:38.435Z,58.22
2023-05-22T03:37:41.753Z,58.15
2023-05-22T03:40:43.780Z,58.16
2023-05-22T03:43:45.947Z,58.15
2023-05-22T03:46:48.270Z,58.19
2023-05-22T03:49:50.315Z,58.57
2023-05-22T03:52:52.091Z,58.38
2023-05-22T03:55:53.866Z,58.48
2023-05-22T03:58:55.673Z,58.29
2023-05-22T04:02:00.510Z,58.26
2023-05-22T04:05:02.382Z,58.42
2023-05-22T04:08:04.753Z,58.48
2023-05-22T04:11:06.369Z,58.76
2023-05-22T04:14:08.846Z,58.61
2023-05-22T04:17:11.228Z,58.63
2023-05-22T04:20:13.588Z,58.85
2023-05-22T04:23:15.204Z,59.01
2023-05-22T04:26:17.524Z,58.82
2023-05-22T04:29:21.689Z,59.05
2023-05-22T04:32:23.516Z,58.80
2023-05-22T04:35:25.641Z,58.25
2023-05-22T04:38:27.572Z,58.17
2023-05-22T04:41:30.235Z,57.73
2023-05-22T04:44:33.794Z,57.66
2023-05-22T04:47:37.620Z,57.29
2023-05-22T04:50:41.644Z,57.93
2023-05-22T04:53:43.649Z,58.25
2023-05-22T04:56:45.420Z,58.13
2023-05-22T04:59:47.685Z,57.57
2023-05-22T05:02:49.951Z,57.06
2023-05-22T05:05:51.920Z,56.83
2023-05-22T05:08:54.346Z,57.06
2023-05-22T05:11:56.359Z,57.23
2023-05-22T05:14:58.150Z,56.84
2023-05-22T05:18:00.291Z,56.44
2023-05-22T05:21:02.014Z,56.56
2023-05-22T05:24:03.833Z,56.23
2023-05-22T05:27:05.893Z,56.39
2023-05-22T05:30:08.074Z,56.03
2023-05-22T05:33:34.417Z,56.20
2023-05-22T05:36:56.627Z,55.87
2023-05-22T05:39:58.699Z,55.56
2023-05-22T05:43:01.007Z,55.68
2023-05-22T05:46:04.032Z,55.12
2023-05-22T05:49:09.622Z,55.33
2023-05-22T05:52:11.873Z,55.36
2023-05-22T05:55:13.864Z,55.48
2023-05-22T05:58:16.230Z,55.58
2023-05-22T06:01:30.563Z,55.03
2023-05-22T06:04:33.069Z,54.96
2023-05-22T06:07:37.461Z,55.13
2023-05-22T06:10:39.626Z,54.44
2023-05-22T06:13:50.224Z,53.53
2023-05-22T06:16:52.093Z,53.01
2023-05-22T06:19:54.015Z,54.10
2023-05-22T06:22:56.067Z,54.38
2023-05-22T06:25:58.277Z,54.39
2023-05-22T06:29:00.809Z,53.79
2023-05-22T06:32:03.202Z,53.12
2023-05-22T06:35:06.587Z,51.59
2023-05-22T06:38:08.441Z,52.14
2023-05-22T06:41:10.326Z,51.80
2023-05-22T06:44:12.457Z,52.25
2023-05-22T06:47:14.372Z,52.43
2023-05-22T06:50:16.430Z,51.21
2023-05-22T06:53:18.322Z,50.56
2023-05-22T06:56:20.141Z,51.17
2023-05-22T06:59:30.285Z,50.83
2023-05-22T07:02:40.952Z,49.51
2023-05-22T07:05:51.690Z,50.03
2023-05-22T07:08:53.502Z,49.30
2023-05-22T07:11:55.373Z,49.50
2023-05-22T07:14:59.384Z,49.52
2023-05-22T07:18:03.670Z,48.10
2023-05-22T07:21:08.471Z,47.61
2023-05-22T07:24:10.702Z,47.24
2023-05-22T07:27:15.350Z,46.22
2023-05-22T07:30:17.668Z,45.55
2023-05-22T07:33:22.129Z,46.35
2023-05-22T07:36:24.470Z,45.66
2023-05-22T07:39:29.043Z,44.88
2023-05-22T07:42:31.019Z,44.69
2023-05-22T07:45:35.428Z,45.30
2023-05-22T07:48:37.973Z,45.39
2023-05-22T07:51:41.761Z,44.04
2023-05-22T07:54:45.520Z,42.65
2023-05-22T07:57:48.720Z,42.44
2023-05-22T08:00:57.795Z,42.58
2023-05-22T08:04:00.001Z,41.61
2023-05-22T08:07:02.059Z,42.09
2023-05-22T08:10:07.910Z,41.39
2023-05-22T08:13:16.149Z,41.13
2023-05-22T08:16:18.121Z,42.02
2023-05-22T08:19:21.253Z,42.14
2023-05-22T08:22:23.268Z,42.15
2023-05-22T08:25:25.119Z,41.61
2023-05-22T08:28:27.094Z,40.87
2023-05-22T08:31:28.930Z,41.82
2023-05-22T08:34:32.369Z,41.70
2023-05-22T08:37:34.197Z,41.56
2023-05-22T08:40:38.732Z,40.92
2023-05-22T08:43:41.339Z,41.03
2023-05-22T08:46:44.848Z,39.85
2023-05-22T08:49:51.237Z,40.60
2023-05-22T08:52:56.913Z,40.02
2023-05-22T08:55:59.308Z,39.56
2023-05-22T08:59:01.652Z,40.96
2023-05-22T09:02:06.660Z,39.17
2023-05-22T09:05:09.382Z,38.59
2023-05-22T09:08:19.797Z,38.69
2023-05-22T09:11:23.895Z,38.49
2023-05-22T09:14:25.712Z,39.41
2023-05-22T09:17:27.535Z,38.52
2023-05-22T09:20:29.609Z,38.81
2023-05-22T09:23:31.735Z,39.26
2023-05-22T09:26:34.029Z,39.49
2023-05-22T09:29:49.072Z,39.93
2023-05-22T09:32:51.158Z,38.79
2023-05-22T09:35:53.671Z,37.54
2023-05-22T09:38:55.874Z,37.64
2023-05-22T09:42:00.904Z,38.76
2023-05-22T09:45:07.126Z,37.73
2023-05-22T09:48:09.758Z,38.80
2023-05-22T09:51:12.602Z,38.10
2023-05-22T09:54:15.552Z,37.18
2023-05-22T09:57:18.974Z,37.59
2023-05-22T10:00:22.889Z,38.73
2023-05-22T10:03:26.668Z,37.66
2023-05-22T10:06:30.926Z,37.33
2023-05-22T10:09:37.743Z,37.67
2023-05-22T10:12:44.791Z,36.82
2023-05-22T10:15:48.497Z,36.95
2023-05-22T10:18:51.976Z,36.44
2023-05-22T10:21:56.552Z,36.10
2023-05-22T10:25:01.486Z,35.66
2023-05-22T10:28:12.148Z,35.64
2023-05-22T10:31:31.744Z,36.42
2023-05-22T10:35:08.261Z,36.86
2023-05-22T10:38:30.104Z,36.66
2023-05-22T10:41:34.311Z,36.80
2023-05-22T10:44:36.156Z,37.57
2023-05-22T10:47:38.188Z,37.16
2023-05-22T10:50:52.316Z,37.27
2023-05-22T10:54:04.760Z,37.46
2023-05-22T10:57:12.859Z,37.87
2023-05-22T11:00:15.762Z,38.31
2023-05-22T11:03:21.097Z,40.05
2023-05-22T11:06:42.884Z,38.41
2023-05-22T11:09:47.841Z,38.58
2023-05-22T11:13:02.528Z,38.01
2023-05-22T11:16:05.728Z,38.54
2023-05-22T11:19:22.009Z,38.40
2023-05-22T11:22:32.200Z,38.49
2023-05-22T11:25:36.029Z,38.99
2023-05-22T11:28:38.668Z,39.45
2023-05-22T11:31:41.040Z,40.60
2023-05-22T11:34:43.391Z,39.47
2023-05-22T11:37:46.513Z,39.39
2023-05-22T11:40:51.381Z,40.16
2023-05-22T11:43:53.388Z,40.42
2023-05-22T11:46:55.305Z,39.54
2023-05-22T11:49:58.059Z,39.52
2023-05-22T11:53:02.151Z,39.58
2023-05-22T11:56:05.332Z,40.00
2023-05-22T11:59:07.222Z,39.96
2023-05-22T12:02:09.093Z,40.59
2023-05-22T12:05:11.339Z,40.49
2023-05-22T12:08:13.201Z,40.43
2023-05-22T12:11:15.984Z,40.18
2023-05-22T12:14:17.898Z,40.34
2023-05-22T12:17:19.626Z,39.46
2023-05-22T12:20:21.418Z,40.00
2023-05-22T12:23:24.845Z,40.24
2023-05-22T12:26:26.643Z,40.53
2023-05-22T12:29:28.573Z,40.30
2023-05-22T12:32:30.505Z,39.77
2023-05-22T12:35:32.269Z,39.38
2023-05-22T12:38:35.545Z,39.34
2023-05-22T12:41:38.303Z,39.71
2023-05-22T12:44:40.166Z,39.31
2023-05-22T12:47:41.920Z,38.70
2023-05-22T12:50:44.411Z,38.67
2023-05-22T12:53:46.271Z,38.57
2023-05-22T12:56:47.967Z,38.14
2023-05-22T12:59:49.867Z,38.56
2023-05-22T13:02:51.791Z,37.91
2023-05-22T13:05:53.636Z,38.33
2023-05-22T13:08:55.439Z,38.69
2023-05-22T13:11:57.369Z,38.76
2023-05-22T13:14:59.343Z,38.23
2023-05-22T13:18:01.287Z,38.43
2023-05-22T13:21:03.017Z,37.55
2023-05-22T13:24:04.884Z,37.85
2023-05-22T13:27:06.727Z,37.78
2023-05-22T13:30:09.381Z,38.00
2023-05-22T13:33:11.796Z,38.57
2023-05-22T13:36:13.716Z,38.48
2023-05-22T13:39:15.616Z,38.76
2023-05-22T13:42:17.438Z,38.58
2023-05-22T13:45:19.357Z,39.00
2023-05-22T13:48:21.576Z,38.51
2023-05-22T13:51:23.537Z,37.56
2023-05-22T13:54:25.392Z,37.69
2023-05-22T13:57:27.110Z,37.84
2023-05-22T14:00:29.043Z,38.37
2023-05-22T14:03:30.734Z,37.89
2023-05-22T14:06:32.817Z,37.97
2023-05-22T14:09:34.618Z,37.93
2023-05-22T14:12:36.443Z,38.17
2023-05-22T14:15:38.261Z,38.91
2023-05-22T14:18:40.314Z,38.42
2023-05-22T14:21:42.367Z,39.13
2023-05-22T14:24:44.524Z,38.23
2023-05-22T14:27:46.354Z,37.82
2023-05-22T14:30:48.138Z,37.90
2023-05-22T14:33:50.241Z,37.82
2023-05-22T14:36:52.206Z,37.63
2023-05-22T14:39:53.890Z,37.86
2023-05-22T14:42:56.046Z,37.96
2023-05-22T14:45:58.591Z,37.50
2023-05-22T14:49:00.537Z,37.64
2023-05-22T14:52:02.536Z,38.10
2023-05-22T14:55:04.528Z,38.37
2023-05-22T14:58:06.303Z,38.41
2023-05-22T15:01:08.261Z,38.75
2023-05-22T15:04:10.138Z,37.83
2023-05-22T15:07:11.917Z,38.62
2023-05-22T15:10:13.739Z,38.66
2023-05-22T15:13:15.522Z,38.34
2023-05-22T15:16:17.284Z,38.49
2023-05-22T15:19:19.251Z,38.85
2023-05-22T15:22:22.415Z,38.57
2023-05-22T15:25:24.219Z,38.50
2023-05-22T15:28:25.971Z,39.49
2023-05-22T15:31:28.751Z,39.55
2023-05-22T15:34:30.805Z,38.71
2023-05-22T15:37:35.910Z,38.39
2023-05-22T15:40:38.746Z,38.53
2023-05-22T15:43:40.738Z,38.62
2023-05-22T15:46:42.718Z,38.41
2023-05-22T15:49:44.392Z,38.38
2023-05-22T15:52:46.158Z,38.59
2023-05-22T15:55:49.250Z,38.63
2023-05-22T15:58:50.965Z,38.79
2023-05-22T16:01:52.707Z,38.49
2023-05-22T16:04:54.566Z,38.84
2023-05-22T16:07:56.379Z,38.60
2023-05-22T16:11:00.892Z,38.36
2023-05-22T16:14:03.426Z,38.18
2023-05-22T16:17:05.657Z,39.30
2023-05-22T16:20:08.105Z,39.26
2023-05-22T16:23:09.870Z,39.61
2023-05-22T16:26:11.656Z,38.95
2023-05-22T16:29:14.421Z,39.07
2023-05-22T16:32:16.301Z,39.08
2023-05-22T16:35:19.039Z,39.09
2023-05-22T16:38:20.932Z,39.22
2023-05-22T16:41:22.739Z,39.80
2023-05-22T16:44:24.564Z,39.28
2023-05-22T16:47:26.334Z,40.30
2023-05-22T16:50:28.845Z,40.05
2023-05-22T16:53:30.905Z,39.64
2023-05-22T16:56:33.801Z,39.81
2023-05-22T16:59:35.660Z,39.99
2023-05-22T17:02:38.968Z,40.06
2023-05-22T17:05:41.446Z,40.33
2023-05-22T17:08:43.618Z,40.86
2023-05-22T17:11:45.507Z,40.97
2023-05-22T17:14:47.235Z,41.14
2023-05-22T17:17:49.037Z,41.54
2023-05-22T17:20:53.181Z,41.49
2023-05-22T17:23:55.707Z,41.56
2023-05-22T17:26:57.411Z,41.63
2023-05-22T17:29:59.245Z,41.92
2023-05-22T17:33:02.983Z,42.36
2023-05-22T17:36:05.203Z,42.64
2023-05-22T17:39:07.127Z,43.29
2023-05-22T17:42:10.093Z,42.66
2023-05-22T17:45:13.703Z,42.51
2023-05-22T17:48:16.129Z,41.88
2023-05-22T17:51:18.011Z,41.92
2023-05-22T17:54:19.770Z,42.19
2023-05-22T17:57:21.931Z,42.25
2023-05-22T18:00:23.681Z,42.74
2023-05-22T18:03:25.892Z,43.16
2023-05-22T18:06:28.586Z,43.72
2023-05-22T18:09:30.507Z,44.09
2023-05-22T18:12:32.509Z,45.03
2023-05-22T18:15:34.278Z,45.19
2023-05-22T18:18:36.067Z,45.47
2023-05-22T18:21:37.779Z,45.79
2023-05-22T18:24:40.132Z,45.97
2023-05-22T18:27:41.905Z,46.46
2023-05-22T18:30:48.880Z,46.41
2023-05-22T18:33:50.645Z,46.63
2023-05-22T18:36:52.417Z,47.05
2023-05-22T18:39:54.219Z,47.08
2023-05-22T18:42:56.131Z,47.57
2023-05-22T18:45:58.242Z,47.98
2023-05-22T18:48:59.942Z,47.92
2023-05-22T18:52:01.811Z,47.60
2023-05-22T18:55:04.349Z,47.90
2023-05-22T18:58:06.166Z,48.04
2023-05-22T19:01:08.208Z,48.10
2023-05-22T19:04:10.035Z,48.18
2023-05-22T19:07:11.881Z,48.25
2023-05-22T19:10:13.759Z,48.33
2023-05-22T19:13:15.608Z,48.53
2023-05-22T19:16:17.508Z,48.70
2023-05-22T19:19:19.335Z,49.01
2023-05-22T19:22:21.226Z,49.21
2023-05-22T19:25:23.298Z,49.17
2023-05-22T19:28:25.462Z,49.37
2023-05-22T19:31:28.371Z,49.16
2023-05-22T19:34:30.215Z,49.49
2023-05-22T19:37:32.001Z,49.64
2023-05-22T19:40:33.960Z,49.93
2023-05-22T19:43:35.808Z,50.17
2023-05-22T19:46:37.722Z,49.98
2023-05-22T19:49:39.934Z,50.56
2023-05-22T19:52:43.076Z,50.70
2023-05-22T19:55:45.459Z,50.54
2023-05-22T19:58:47.196Z,50.99
2023-05-22T20:01:49.971Z,50.85
2023-05-22T20:04:54.156Z,51.33
2023-05-22T20:07:57.402Z,51.53
2023-05-22T20:10:59.361Z,51.69
2023-05-22T20:14:01.908Z,51.77
2023-05-22T20:17:03.929Z,51.92
2023-05-22T20:20:07.263Z,52.40
2023-05-22T20:23:10.746Z,52.77
2023-05-22T20:26:12.592Z,53.00
2023-05-22T20:29:14.539Z,53.24
2023-05-22T20:32:16.553Z,53.52
2023-05-22T20:35:19.566Z,53.61
2023-05-22T20:38:21.828Z,53.78
2023-05-22T20:41:24.287Z,53.97
2023-05-22T20:44:26.426Z,53.76
2023-05-22T20:47:28.045Z,53.70
2023-05-22T20:50:32.136Z,53.48
2023-05-22T20:53:33.931Z,53.79
2023-05-22T20:56:36.980Z,53.84
2023-05-22T20:59:38.940Z,53.84
2023-05-22T21:02:40.767Z,54.07
2023-05-22T21:05:42.580Z,54.25
2023-05-22T21:08:44.290Z,54.34
2023-05-22T21:11:46.138Z,54.34
2023-05-22T21:14:47.873Z,54.36
2023-05-22T21:17:49.759Z,54.47
2023-05-22T21:20:52.617Z,54.67
2023-05-22T21:23:54.530Z,54.97
2023-05-22T21:26:56.325Z,55.22
2023-05-22T21:29:58.167Z,55.39
2023-05-22T21:33:00.569Z,55.39
2023-05-22T21:36:02.552Z,55.34
2023-05-22T21:39:04.303Z,55.43
2023-05-22T21:42:06.570Z,55.50
2023-05-22T21:45:08.656Z,55.65
2023-05-22T21:48:10.960Z,55.79
2023-05-22T21:51:12.757Z,55.82
2023-05-22T21:54:14.446Z,55.85
2023-05-22T21:57:16.225Z,55.74
2023-05-22T22:00:19.015Z,55.68
2023-05-22T22:03:20.890Z,55.67
2023-05-22T22:06:23.618Z,55.72
2023-05-22T22:09:25.302Z,55.70
2023-05-22T22:12:27.010Z,55.87
2023-05-22T22:15:29.252Z,55.94
2023-05-22T22:18:32.305Z,56.25
2023-05-22T22:21:34.429Z,56.04
2023-05-22T22:24:36.400Z,56.36
2023-05-22T22:27:38.109Z,56.48
2023-05-22T22:30:40.125Z,56.34
2023-05-22T22:33:41.966Z,55.97
2023-05-22T22:36:43.827Z,55.77
2023-05-22T22:39:45.676Z,55.88
2023-05-22T22:42:47.441Z,55.80
2023-05-22T22:45:49.268Z,55.80
2023-05-22T22:48:50.979Z,55.74
2023-05-22T22:51:53.889Z,55.98
2023-05-22T22:54:55.671Z,56.30
2023-05-22T22:57:57.417Z,56.51
2023-05-22T23:00:59.170Z,56.64
2023-05-22T23:04:01.125Z,56.75
2023-05-22T23:07:03.559Z,56.80
2023-05-22T23:10:06.022Z,56.99
2023-05-22T23:13:07.970Z,57.10
2023-05-22T23:16:09.741Z,57.04
2023-05-22T23:19:13.274Z,57.00
2023-05-22T23:22:15.046Z,57.06
2023-05-22T23:25:16.924Z,57.21
2023-05-22T23:28:18.651Z,57.04
2023-05-22T23:31:25.173Z,57.20
2023-05-22T23:34:26.951Z,57.42
2023-05-22T23:37:28.694Z,57.46
2023-05-22T23:40:30.432Z,57.55
2023-05-22T23:43:32.145Z,57.77
2023-05-22T23:46:35.138Z,57.98
2023-05-22T23:49:36.912Z,58.11
2023-05-22T23:52:38.641Z,57.99
2023-05-22T23:55:40.611Z,58.11
2023-05-22T23:58:42.557Z,58.16
